sensor_id;sensor_type;location;lat;lon;timestamp;pressure;altitude;pressure_sealevel;temperature;humidity
5350;BME280;2697;42.144;24.794;2023-06-14T00:02:11;-19699.34;;;19.44;100.00
5350;BME280;2697;42.144;24.794;2023-06-14T00:04:36;-19701.72;;;19.52;100.00
5350;BME280;2697;42.144;24.794;2023-06-14T00:07:04;-19704.84;;;19.63;100.00
5350;BME280;2697;42.144;24.794;2023-06-14T00:09:29;-19706.19;;;19.68;100.00
5350;BME280;2697;42.144;24.794;2023-06-14T00:11:55;-19704.41;;;19.61;100.00
5350;BME280;2697;42.144;24.794;2023-06-14T00:14:20;-19703.66;;;19.59;100.00
5350;BME280;2697;42.144;24.794;2023-06-14T00:16:46;-19706.19;;;19.68;100.00
5350;BME280;2697;42.144;24.794;2023-06-14T00:19:11;-19707.09;;;19.71;100.00
5350;BME280;2697;42.144;24.794;2023-06-14T00:21:37;-19704.56;;;19.62;100.00
5350;BME280;2697;42.144;24.794;2023-06-14T00:24:03;-19702.63;;;19.55;100.00
5350;BME280;2697;42.144;24.794;2023-06-14T00:26:29;-19705.75;;;19.66;100.00
5350;BME280;2697;42.144;24.794;2023-06-14T00:28:54;-19706.50;;;19.69;100.00
5350;BME280;2697;42.144;24.794;2023-06-14T00:31:21;-19707.09;;;19.71;100.00
5350;BME280;2697;42.144;24.794;2023-06-14T00:33:46;-19704.69;;;19.62;100.00
5350;BME280;2697;42.144;24.794;2023-06-14T00:36:12;-19705.59;;;19.66;100.00
5350;BME280;2697;42.144;24.794;2023-06-14T00:38:37;-19711.41;;;19.85;100.00
5350;BME280;2697;42.144;24.794;2023-06-14T00:41:03;-19710.22;;;19.81;100.00
5350;BME280;2697;42.144;24.794;2023-06-14T00:43:28;-19709.47;;;19.79;100.00
5350;BME280;2697;42.144;24.794;2023-06-14T00:45:54;-19709.03;;;19.77;100.00
5350;BME280;2697;42.144;24.794;2023-06-14T00:48:20;-19710.97;;;19.84;100.00
5350;BME280;2697;42.144;24.794;2023-06-14T00:50:45;-19710.38;;;19.82;100.00
5350;BME280;2697;42.144;24.794;2023-06-14T00:53:12;-19714.25;;;19.95;100.00
5350;BME280;2697;42.144;24.794;2023-06-14T00:55:38;-19710.22;;;19.81;100.00
5350;BME280;2697;42.144;24.794;2023-06-14T00:58:03;-19715.00;;;19.98;100.00
5350;BME280;2697;42.144;24.794;2023-06-14T01:00:29;-19712.31;;;19.88;100.00
5350;BME280;2697;42.144;24.794;2023-06-14T01:02:54;-19712.47;;;19.89;100.00
5350;BME280;2697;42.144;24.794;2023-06-14T01:05:20;-19711.25;;;19.85;100.00
5350;BME280;2697;42.144;24.794;2023-06-14T01:15:43;-19704.41;;;19.61;100.00
5350;BME280;2697;42.144;24.794;2023-06-14T01:18:09;-19705.44;;;19.65;100.00
5350;BME280;2697;42.144;24.794;2023-06-14T01:20:42;-19704.56;;;19.62;100.00
5350;BME280;2697;42.144;24.794;2023-06-14T01:23:10;-19706.19;;;19.68;100.00
5350;BME280;2697;42.144;24.794;2023-06-14T01:25:37;-19708.28;;;19.75;100.00
5350;BME280;2697;42.144;24.794;2023-06-14T01:28:05;-19708.28;;;19.75;100.00
5350;BME280;2697;42.144;24.794;2023-06-14T01:30:39;-19706.34;;;19.68;100.00
5350;BME280;2697;42.144;24.794;2023-06-14T01:33:14;-19708.00;;;19.74;100.00
5350;BME280;2697;42.144;24.794;2023-06-14T01:35:46;-19702.91;;;19.56;100.00
5350;BME280;2697;42.144;24.794;2023-06-14T01:38:13;-19706.19;;;19.68;100.00
5350;BME280;2697;42.144;24.794;2023-06-14T01:40:40;-19703.66;;;19.59;100.00
5350;BME280;2697;42.144;24.794;2023-06-14T01:43:06;-19700.81;;;19.49;100.00
5350;BME280;2697;42.144;24.794;2023-06-14T01:45:33;-19699.19;;;19.44;100.00
5350;BME280;2697;42.144;24.794;2023-06-14T01:48:00;-19700.09;;;19.47;100.00
5350;BME280;2697;42.144;24.794;2023-06-14T01:50:30;-19695.16;;;19.30;100.00
5350;BME280;2697;42.144;24.794;2023-06-14T01:52:55;-19693.06;;;19.23;100.00
5350;BME280;2697;42.144;24.794;2023-06-14T01:55:21;-19693.66;;;19.25;100.00
5350;BME280;2697;42.144;24.794;2023-06-14T01:57:47;-19692.91;;;19.22;100.00
5350;BME280;2697;42.144;24.794;2023-06-14T02:00:13;-19692.78;;;19.22;100.00
5350;BME280;2697;42.144;24.794;2023-06-14T02:02:40;-19692.47;;;19.21;100.00
5350;BME280;2697;42.144;24.794;2023-06-14T02:05:06;-19692.78;;;19.22;100.00
5350;BME280;2697;42.144;24.794;2023-06-14T02:07:31;-19690.84;;;19.15;100.00
5350;BME280;2697;42.144;24.794;2023-06-14T02:09:57;-19693.38;;;19.24;100.00
5350;BME280;2697;42.144;24.794;2023-06-14T02:12:22;-19695.00;;;19.29;100.00
5350;BME280;2697;42.144;24.794;2023-06-14T02:14:47;-19692.03;;;19.19;100.00
5350;BME280;2697;42.144;24.794;2023-06-14T02:17:14;-19693.50;;;19.24;100.00
5350;BME280;2697;42.144;24.794;2023-06-14T02:19:40;-19694.25;;;19.27;100.00
5350;BME280;2697;42.144;24.794;2023-06-14T02:22:05;-19695.75;;;19.32;100.00
5350;BME280;2697;42.144;24.794;2023-06-14T02:24:31;-19695.75;;;19.32;100.00
5350;BME280;2697;42.144;24.794;2023-06-14T02:26:57;-19694.88;;;19.29;100.00
5350;BME280;2697;42.144;24.794;2023-06-14T02:29:22;-19692.03;;;19.19;100.00
5350;BME280;2697;42.144;24.794;2023-06-14T02:31:47;-19690.38;;;19.14;100.00
5350;BME280;2697;42.144;24.794;2023-06-14T02:34:14;-19691.88;;;19.19;100.00
5350;BME280;2697;42.144;24.794;2023-06-14T02:36:42;-19693.97;;;19.26;100.00
5350;BME280;2697;42.144;24.794;2023-06-14T02:39:08;-19692.03;;;19.19;100.00
5350;BME280;2697;42.144;24.794;2023-06-14T02:41:34;-19695.75;;;19.32;100.00
5350;BME280;2697;42.144;24.794;2023-06-14T02:44:00;-19699.34;;;19.44;100.00
5350;BME280;2697;42.144;24.794;2023-06-14T02:46:25;-19699.94;;;19.46;100.00
5350;BME280;2697;42.144;24.794;2023-06-14T02:48:51;-19691.88;;;19.19;100.00
5350;BME280;2697;42.144;24.794;2023-06-14T02:51:18;-19698.13;;;19.40;100.00
5350;BME280;2697;42.144;24.794;2023-06-14T02:53:43;-19701.72;;;19.52;100.00
5350;BME280;2697;42.144;24.794;2023-06-14T02:56:09;-19699.47;;;19.45;100.00
5350;BME280;2697;42.144;24.794;2023-06-14T02:58:36;-19695.00;;;19.29;100.00
5350;BME280;2697;42.144;24.794;2023-06-14T03:01:02;-19692.78;;;19.22;100.00
5350;BME280;2697;42.144;24.794;2023-06-14T03:03:29;-19693.50;;;19.24;100.00
5350;BME280;2697;42.144;24.794;2023-06-14T03:05:55;-19693.06;;;19.23;100.00
5350;BME280;2697;42.144;24.794;2023-06-14T03:08:21;-19693.66;;;19.25;100.00
5350;BME280;2697;42.144;24.794;2023-06-14T03:10:51;-19688.16;;;19.06;100.00
5350;BME280;2697;42.144;24.794;2023-06-14T03:13:17;-19690.53;;;19.14;100.00
5350;BME280;2697;42.144;24.794;2023-06-14T03:15:42;-19692.91;;;19.22;100.00
5350;BME280;2697;42.144;24.794;2023-06-14T03:18:10;-19690.09;;;19.13;100.00
5350;BME280;2697;42.144;24.794;2023-06-14T03:20:37;-19697.25;;;19.37;100.00
5350;BME280;2697;42.144;24.794;2023-06-14T03:23:03;-19700.97;;;19.50;100.00
5350;BME280;2697;42.144;24.794;2023-06-14T03:25:30;-19701.41;;;19.51;100.00
5350;BME280;2697;42.144;24.794;2023-06-14T03:27:56;-19703.81;;;19.59;100.00
5350;BME280;2697;42.144;24.794;2023-06-14T03:30:21;-19706.66;;;19.69;100.00
5350;BME280;2697;42.144;24.794;2023-06-14T03:32:47;-19708.59;;;19.76;100.00
5350;BME280;2697;42.144;24.794;2023-06-14T03:35:12;-19712.59;;;19.89;100.00
5350;BME280;2697;42.144;24.794;2023-06-14T03:37:45;-19713.94;;;19.94;100.00
5350;BME280;2697;42.144;24.794;2023-06-14T03:40:12;-19716.63;;;20.03;100.00
5350;BME280;2697;42.144;24.794;2023-06-14T03:42:38;-19721.69;;;20.20;100.00
5350;BME280;2697;42.144;24.794;2023-06-14T03:45:04;-19724.06;;;20.29;100.00
5350;BME280;2697;42.144;24.794;2023-06-14T03:47:29;-19725.72;;;20.34;100.00
5350;BME280;2697;42.144;24.794;2023-06-14T03:49:55;-19725.28;;;20.33;100.00
5350;BME280;2697;42.144;24.794;2023-06-14T03:52:21;-19730.94;;;20.52;100.00
5350;BME280;2697;42.144;24.794;2023-06-14T03:54:47;-19733.31;;;20.60;100.00
5350;BME280;2697;42.144;24.794;2023-06-14T03:57:13;-19734.50;;;20.64;100.00
5350;BME280;2697;42.144;24.794;2023-06-14T03:59:38;-19737.19;;;20.73;100.00
5350;BME280;2697;42.144;24.794;2023-06-14T04:02:04;-19734.97;;;20.66;100.00
5350;BME280;2697;42.144;24.794;2023-06-14T04:04:29;-19733.31;;;20.60;100.00
5350;BME280;2697;42.144;24.794;2023-06-14T04:06:58;-19735.56;;;20.68;100.00
5350;BME280;2697;42.144;24.794;2023-06-14T04:09:26;-17355.31;;;20.57;100.00
5350;BME280;2697;42.144;24.794;2023-06-14T04:11:52;-15664.84;;;20.88;100.00
5350;BME280;2697;42.144;24.794;2023-06-14T04:14:21;-11586.38;;;20.90;100.00
5350;BME280;2697;42.144;24.794;2023-06-14T04:16:47;-8524.94;;;20.96;100.00
5350;BME280;2697;42.144;24.794;2023-06-14T04:19:13;-7842.84;;;20.85;100.00
5350;BME280;2697;42.144;24.794;2023-06-14T04:21:38;-9544.88;;;20.88;100.00
5350;BME280;2697;42.144;24.794;2023-06-14T04:24:04;-10567.88;;;21.03;100.00
5350;BME280;2697;42.144;24.794;2023-06-14T04:26:29;-2733.41;;;20.84;100.00
5350;BME280;2697;42.144;24.794;2023-06-14T04:28:58;-5801.69;;;21.11;100.00
5350;BME280;2697;42.144;24.794;2023-06-14T04:31:29;-4098.91;;;21.40;100.00
5350;BME280;2697;42.144;24.794;2023-06-14T04:33:59;4095.44;;;21.48;100.00
5350;BME280;2697;42.144;24.794;2023-06-14T04:36:24;11625.66;;;21.63;100.00
5350;BME280;2697;42.144;24.794;2023-06-14T04:38:51;5467.84;;;21.92;100.00
5350;BME280;2697;42.144;24.794;2023-06-14T04:41:20;25360.47;;;21.82;100.00
5350;BME280;2697;42.144;24.794;2023-06-14T04:43:48;40178.84;;;21.88;100.00
5350;BME280;2697;42.144;24.794;2023-06-14T04:46:14;25714.13;;;22.05;100.00
5350;BME280;2697;42.144;24.794;2023-06-14T04:48:40;40893.25;;;22.23;100.00
5350;BME280;2697;42.144;24.794;2023-06-14T04:51:08;41254.16;;;22.45;100.00
5350;BME280;2697;42.144;24.794;2023-06-14T04:53:33;73457.19;;;21.87;100.00
5350;BME280;2697;42.144;24.794;2023-06-14T04:55:59;57822.38;;;21.86;100.00
5350;BME280;2697;42.144;24.794;2023-06-14T04:58:26;67535.19;;;21.79;100.00
5350;BME280;2697;42.144;24.794;2023-06-14T05:00:52;73444.22;;;21.76;100.00
5350;BME280;2697;42.144;24.794;2023-06-14T05:03:18;86008.78;;;21.87;100.00
5350;BME280;2697;42.144;24.794;2023-06-14T05:05:46;86052.84;;;22.18;100.00
5350;BME280;2697;42.144;24.794;2023-06-14T05:08:11;93440.31;;;22.46;100.00
5350;BME280;2697;42.144;24.794;2023-06-14T05:10:37;94203.81;;;22.87;100.00
5350;BME280;2697;42.144;24.794;2023-06-14T05:13:02;127625.28;;;22.82;100.00
5350;BME280;2697;42.144;24.794;2023-06-14T05:15:28;124062.31;;;22.67;100.00
5350;BME280;2697;42.144;24.794;2023-06-14T05:17:54;127314.63;;;23.02;100.00
5350;BME280;2697;42.144;24.794;2023-06-14T05:20:24;158533.19;;;23.03;100.00
5350;BME280;2697;42.144;24.794;2023-06-14T05:22:53;115065.56;;;23.56;100.00
5350;BME280;2697;42.144;24.794;2023-06-14T05:25:22;107531.16;;;22.80;100.00
5350;BME280;2697;42.144;24.794;2023-06-14T05:27:48;105469.84;;;23.08;100.00
5350;BME280;2697;42.144;24.794;2023-06-14T05:30:14;131715.44;;;23.75;100.00
5350;BME280;2697;42.144;24.794;2023-06-14T05:32:40;158658.13;;;23.51;100.00
5350;BME280;2697;42.144;24.794;2023-06-14T05:35:06;158634.19;;;23.42;100.00
5350;BME280;2697;42.144;24.794;2023-06-14T05:37:32;158632.88;;;23.42;100.00
5350;BME280;2697;42.144;24.794;2023-06-14T05:39:57;158755.22;;;23.88;100.00
5350;BME280;2697;42.144;24.794;2023-06-14T05:42:23;158812.44;;;24.10;100.00
5350;BME280;2697;42.144;24.794;2023-06-14T05:44:48;158777.84;;;23.97;100.00
5350;BME280;2697;42.144;24.794;2023-06-14T05:47:13;158886.97;;;24.39;100.00
5350;BME280;2697;42.144;24.794;2023-06-14T05:49:39;158733.94;;;23.80;100.00
5350;BME280;2697;42.144;24.794;2023-06-14T05:52:05;158847.00;;;24.24;100.00
5350;BME280;2697;42.144;24.794;2023-06-14T05:54:30;158886.97;;;24.39;100.00
5350;BME280;2697;42.144;24.794;2023-06-14T05:56:56;158977.38;;;24.73;100.00
5350;BME280;2697;42.144;24.794;2023-06-14T05:59:26;158977.38;;;24.73;100.00
5350;BME280;2697;42.144;24.794;2023-06-14T06:01:52;158788.50;;;24.01;100.00
5350;BME280;2697;42.144;24.794;2023-06-14T06:04:17;158897.59;;;24.43;100.00
5350;BME280;2697;42.144;24.794;2023-06-14T06:06:42;158771.22;;;23.95;100.00
5350;BME280;2697;42.144;24.794;2023-06-14T06:09:08;158784.47;;;24.00;100.00
5350;BME280;2697;42.144;24.794;2023-06-14T06:11:33;158857.63;;;24.28;100.00
5350;BME280;2697;42.144;24.794;2023-06-14T06:13:58;158841.69;;;24.22;100.00
5350;BME280;2697;42.144;24.794;2023-06-14T06:16:24;158763.19;;;23.92;100.00
5350;BME280;2697;42.144;24.794;2023-06-14T06:18:49;158886.97;;;24.39;100.00
5350;BME280;2697;42.144;24.794;2023-06-14T06:21:15;159139.78;;;25.36;100.00
5350;BME280;2697;42.144;24.794;2023-06-14T06:23:41;159209.00;;;25.62;100.00
5350;BME280;2697;42.144;24.794;2023-06-14T06:26:06;159371.47;;;26.24;100.00
5350;BME280;2697;42.144;24.794;2023-06-14T06:28:31;159238.34;;;25.73;100.00
5350;BME280;2697;42.144;24.794;2023-06-14T06:30:57;159630.00;;;27.23;100.00
5350;BME280;2697;42.144;24.794;2023-06-14T06:33:22;159532.69;;;26.86;100.00
5350;BME280;2697;42.144;24.794;2023-06-14T06:35:48;159375.50;;;26.26;100.00
5350;BME280;2697;42.144;24.794;2023-06-14T06:38:13;159360.81;;;26.20;100.00
5350;BME280;2697;42.144;24.794;2023-06-14T06:40:39;159520.72;;;26.81;100.00
5350;BME280;2697;42.144;24.794;2023-06-14T06:43:04;159462.09;;;26.59;100.00
5350;BME280;2697;42.144;24.794;2023-06-14T06:45:29;159532.69;;;26.86;100.00
5350;BME280;2697;42.144;24.794;2023-06-14T06:47:55;159582.03;;;27.05;96.82
5350;BME280;2697;42.144;24.794;2023-06-14T06:50:21;159494.09;;;26.71;98.25
5350;BME280;2697;42.144;24.794;2023-06-14T06:52:48;159291.59;;;25.94;100.00
5350;BME280;2697;42.144;24.794;2023-06-14T06:55:14;159312.88;;;26.02;100.00
5350;BME280;2697;42.144;24.794;2023-06-14T06:57:39;159392.78;;;26.32;97.82
5350;BME280;2697;42.144;24.794;2023-06-14T07:00:07;159299.59;;;25.97;100.00
5350;BME280;2697;42.144;24.794;2023-06-14T07:02:34;159323.56;;;26.06;100.00
5350;BME280;2697;42.144;24.794;2023-06-14T07:04:59;159352.84;;;26.17;100.00
5350;BME280;2697;42.144;24.794;2023-06-14T07:07:25;159435.44;;;26.49;96.73
5350;BME280;2697;42.144;24.794;2023-06-14T07:09:50;159472.78;;;26.63;97.15
5350;BME280;2697;42.144;24.794;2023-06-14T07:12:16;159688.63;;;27.45;89.32
5350;BME280;2697;42.144;24.794;2023-06-14T07:14:41;159701.97;;;27.50;88.62
5350;BME280;2697;42.144;24.794;2023-06-14T07:17:07;159720.63;;;27.58;89.54
5350;BME280;2697;42.144;24.794;2023-06-14T07:19:32;159760.63;;;27.73;88.96
5350;BME280;2697;42.144;24.794;2023-06-14T07:21:58;159744.69;;;27.67;88.21
5350;BME280;2697;42.144;24.794;2023-06-14T07:24:23;159752.66;;;27.70;87.78
5350;BME280;2697;42.144;24.794;2023-06-14T07:26:49;159944.69;;;28.43;81.64
5350;BME280;2697;42.144;24.794;2023-06-14T07:29:15;159912.72;;;28.31;80.14
5350;BME280;2697;42.144;24.794;2023-06-14T07:31:41;159816.66;;;27.94;82.23
5350;BME280;2697;42.144;24.794;2023-06-14T07:34:06;159675.31;;;27.40;83.87
5350;BME280;2697;42.144;24.794;2023-06-14T07:36:32;159699.31;;;27.49;83.64
5350;BME280;2697;42.144;24.794;2023-06-14T07:38:57;159595.38;;;27.10;85.22
5350;BME280;2697;42.144;24.794;2023-06-14T07:41:23;159587.34;;;27.07;86.29
5350;BME280;2697;42.144;24.794;2023-06-14T07:43:49;159456.78;;;26.57;90.18
5350;BME280;2697;42.144;24.794;2023-06-14T07:46:14;159565.97;;;26.98;87.88
5350;BME280;2697;42.144;24.794;2023-06-14T07:48:40;159822.00;;;27.96;79.69
5350;BME280;2697;42.144;24.794;2023-06-14T07:51:05;159767.34;;;27.75;80.28
5350;BME280;2697;42.144;24.794;2023-06-14T07:53:31;159901.97;;;28.27;78.57
5350;BME280;2697;42.144;24.794;2023-06-14T07:55:56;159618.03;;;27.18;82.32
5350;BME280;2697;42.144;24.794;2023-06-14T07:58:22;159840.66;;;28.03;78.42
5350;BME280;2697;42.144;24.794;2023-06-14T08:00:47;160088.81;;;28.98;70.35
5350;BME280;2697;42.144;24.794;2023-06-14T08:03:12;160083.47;;;28.96;68.22
5350;BME280;2697;42.144;24.794;2023-06-14T08:05:38;160230.28;;;29.52;67.26
5350;BME280;2697;42.144;24.794;2023-06-14T08:08:03;159783.31;;;27.81;73.41
5350;BME280;2697;42.144;24.794;2023-06-14T08:10:29;160210.22;;;29.44;67.87
5350;BME280;2697;42.144;24.794;2023-06-14T08:12:54;160286.31;;;29.73;66.07
5350;BME280;2697;42.144;24.794;2023-06-14T08:15:20;160084.81;;;28.97;66.87
5350;BME280;2697;42.144;24.794;2023-06-14T08:17:45;160064.78;;;28.89;69.24
5350;BME280;2697;42.144;24.794;2023-06-14T08:20:12;159634.00;;;27.24;75.61
5350;BME280;2697;42.144;24.794;2023-06-14T08:22:39;160080.81;;;28.95;69.76
5350;BME280;2697;42.144;24.794;2023-06-14T08:25:08;160126.13;;;29.12;68.62
5350;BME280;2697;42.144;24.794;2023-06-14T08:27:34;160288.97;;;29.74;66.63
5350;BME280;2697;42.144;24.794;2023-06-14T08:29:59;160178.19;;;29.32;68.80
5350;BME280;2697;42.144;24.794;2023-06-14T08:32:25;159999.38;;;28.64;71.05
5350;BME280;2697;42.144;24.794;2023-06-14T08:34:50;159555.34;;;26.94;81.60
5350;BME280;2697;42.144;24.794;2023-06-14T08:37:16;159451.47;;;26.55;81.26
5350;BME280;2697;42.144;24.794;2023-06-14T08:39:42;159530.03;;;26.85;79.19
5350;BME280;2697;42.144;24.794;2023-06-14T08:42:09;159916.69;;;28.32;74.38
5350;BME280;2697;42.144;24.794;2023-06-14T08:44:36;160224.91;;;29.50;67.93
5350;BME280;2697;42.144;24.794;2023-06-14T08:47:01;160186.19;;;29.35;67.35
5350;BME280;2697;42.144;24.794;2023-06-14T08:49:28;160091.47;;;28.99;68.71
5350;BME280;2697;42.144;24.794;2023-06-14T08:51:59;160063.41;;;28.88;69.42
5350;BME280;2697;42.144;24.794;2023-06-14T08:54:30;159701.97;;;27.50;75.01
5350;BME280;2697;42.144;24.794;2023-06-14T08:56:56;159500.75;;;26.74;81.06
5350;BME280;2697;42.144;24.794;2023-06-14T08:59:31;159568.69;;;26.99;80.76
5350;BME280;2697;42.144;24.794;2023-06-14T09:02:01;159748.69;;;27.68;77.05
5350;BME280;2697;42.144;24.794;2023-06-14T09:04:28;159962.06;;;28.50;73.54
5350;BME280;2697;42.144;24.794;2023-06-14T09:06:55;160385.13;;;30.11;65.97
5350;BME280;2697;42.144;24.794;2023-06-14T09:09:21;160486.59;;;30.50;61.89
5350;BME280;2697;42.144;24.794;2023-06-14T09:11:49;160513.28;;;30.60;61.97
5350;BME280;2697;42.144;24.794;2023-06-14T09:14:15;160550.75;;;30.74;61.37
5350;BME280;2697;42.144;24.794;2023-06-14T09:16:41;160469.22;;;30.43;61.40
5350;BME280;2697;42.144;24.794;2023-06-14T09:19:06;160355.72;;;30.00;63.40
5350;BME280;2697;42.144;24.794;2023-06-14T09:21:34;160350.41;;;29.98;62.39
5350;BME280;2697;42.144;24.794;2023-06-14T09:23:59;160540.03;;;30.70;60.92
5350;BME280;2697;42.144;24.794;2023-06-14T09:26:25;160641.56;;;31.09;56.87
5350;BME280;2697;42.144;24.794;2023-06-14T09:28:53;160550.75;;;30.74;59.02
5350;BME280;2697;42.144;24.794;2023-06-14T09:31:19;160588.09;;;30.88;59.26
5350;BME280;2697;42.144;24.794;2023-06-14T09:33:46;160478.59;;;30.47;61.03
5350;BME280;2697;42.144;24.794;2023-06-14T09:38:51;160251.63;;;29.60;65.44
5350;BME280;2697;42.144;24.794;2023-06-14T09:41:17;160459.88;;;30.40;61.14
5350;BME280;2697;42.144;24.794;2023-06-14T09:43:43;160067.44;;;28.90;65.91
5350;BME280;2697;42.144;24.794;2023-06-14T09:46:10;160104.81;;;29.04;66.63
5350;BME280;2697;42.144;24.794;2023-06-14T09:48:36;160172.81;;;29.30;66.38
5350;BME280;2697;42.144;24.794;2023-06-14T09:51:01;160423.88;;;30.26;61.68
5350;BME280;2697;42.144;24.794;2023-06-14T09:53:29;160327.69;;;29.89;63.52
5350;BME280;2697;42.144;24.794;2023-06-14T09:55:57;160572.13;;;30.82;60.35
5350;BME280;2697;42.144;24.794;2023-06-14T09:58:25;160580.09;;;30.85;58.77
5350;BME280;2697;42.144;24.794;2023-06-14T10:00:54;160628.19;;;31.04;57.18
5350;BME280;2697;42.144;24.794;2023-06-14T10:03:28;160609.47;;;30.97;57.94
5350;BME280;2697;42.144;24.794;2023-06-14T10:05:58;160525.38;;;30.64;59.59
5350;BME280;2697;42.144;24.794;2023-06-14T10:08:27;160514.59;;;30.60;59.34
5350;BME280;2697;42.144;24.794;2023-06-14T10:10:55;160023.38;;;28.73;66.31
5350;BME280;2697;42.144;24.794;2023-06-14T10:13:21;160275.66;;;29.69;65.42
5350;BME280;2697;42.144;24.794;2023-06-14T10:18:35;160254.28;;;29.61;64.66
5350;BME280;2697;42.144;24.794;2023-06-14T10:23:37;160347.72;;;29.97;63.71
5350;BME280;2697;42.144;24.794;2023-06-14T10:26:03;160227.63;;;29.51;63.77
5350;BME280;2697;42.144;24.794;2023-06-14T10:28:28;160383.78;;;30.11;62.03
5350;BME280;2697;42.144;24.794;2023-06-14T10:31:11;160489.25;;;30.51;59.24
5350;BME280;2697;42.144;24.794;2023-06-14T10:33:56;160570.78;;;30.82;61.42
5350;BME280;2697;42.144;24.794;2023-06-14T10:38:57;160700.38;;;31.31;60.94
5350;BME280;2697;42.144;24.794;2023-06-14T10:41:23;160572.13;;;30.82;62.54
5350;BME280;2697;42.144;24.794;2023-06-14T10:43:48;160426.53;;;30.27;64.54
5350;BME280;2697;42.144;24.794;2023-06-14T10:46:17;160394.44;;;30.15;65.13
5350;BME280;2697;42.144;24.794;2023-06-14T10:48:45;160401.16;;;30.17;64.43
5350;BME280;2697;42.144;24.794;2023-06-14T10:51:17;160439.84;;;30.32;63.10
5350;BME280;2697;42.144;24.794;2023-06-14T10:53:50;160513.28;;;30.60;62.54
5350;BME280;2697;42.144;24.794;2023-06-14T10:56:29;160378.47;;;30.08;64.70
5350;BME280;2697;42.144;24.794;2023-06-14T10:58:58;160558.72;;;30.77;60.45
5350;BME280;2697;42.144;24.794;2023-06-14T11:01:40;160657.56;;;31.15;58.08
5350;BME280;2697;42.144;24.794;2023-06-14T11:04:10;160489.25;;;30.51;59.63
5350;BME280;2697;42.144;24.794;2023-06-14T11:06:46;160843.38;;;31.86;56.97
5350;BME280;2697;42.144;24.794;2023-06-14T11:09:25;160560.06;;;30.78;58.54
5350;BME280;2697;42.144;24.794;2023-06-14T11:11:56;160887.50;;;32.02;55.95
5350;BME280;2697;42.144;24.794;2023-06-14T11:14:22;160296.97;;;29.77;63.41
5350;BME280;2697;42.144;24.794;2023-06-14T11:16:48;160222.25;;;29.49;66.92
5350;BME280;2697;42.144;24.794;2023-06-14T11:19:14;160172.81;;;29.30;65.66
5350;BME280;2697;42.144;24.794;2023-06-14T11:21:42;160064.78;;;28.89;70.71
5350;BME280;2697;42.144;24.794;2023-06-14T11:24:11;160088.81;;;28.98;67.73
5350;BME280;2697;42.144;24.794;2023-06-14T11:26:38;160243.59;;;29.57;67.94
5350;BME280;2697;42.144;24.794;2023-06-14T11:29:03;160469.22;;;30.43;62.75
5350;BME280;2697;42.144;24.794;2023-06-14T11:31:29;160355.72;;;30.00;65.56
5350;BME280;2697;42.144;24.794;2023-06-14T11:33:59;160187.53;;;29.36;66.65
5350;BME280;2697;42.144;24.794;2023-06-14T11:36:30;160347.72;;;29.97;64.19
5350;BME280;2697;42.144;24.794;2023-06-14T11:39:03;159910.06;;;28.30;70.81
5350;BME280;2697;42.144;24.794;2023-06-14T11:41:43;160010.06;;;28.68;69.43
5350;BME280;2697;42.144;24.794;2023-06-14T11:44:09;159926.03;;;28.36;72.09
5350;BME280;2697;42.144;24.794;2023-06-14T11:46:35;160144.81;;;29.19;71.39
5350;BME280;2697;42.144;24.794;2023-06-14T11:49:01;159876.63;;;28.17;74.29
5350;BME280;2697;42.144;24.794;2023-06-14T11:51:30;159843.31;;;28.04;72.16
5350;BME280;2697;42.144;24.794;2023-06-14T11:53:55;159906.00;;;28.28;71.87
5350;BME280;2697;42.144;24.794;2023-06-14T11:56:21;159875.31;;;28.17;73.46
5350;BME280;2697;42.144;24.794;2023-06-14T11:58:47;159871.31;;;28.15;75.37
5350;BME280;2697;42.144;24.794;2023-06-14T12:01:18;159792.66;;;27.85;78.16
5350;BME280;2697;42.144;24.794;2023-06-14T12:03:48;160084.81;;;28.97;75.52
5350;BME280;2697;42.144;24.794;2023-06-14T12:06:14;160152.84;;;29.22;69.64
5350;BME280;2697;42.144;24.794;2023-06-14T12:08:40;160175.47;;;29.31;70.77
5350;BME280;2697;42.144;24.794;2023-06-14T12:11:14;160192.84;;;29.38;67.34
5350;BME280;2697;42.144;24.794;2023-06-14T12:13:43;159983.41;;;28.58;73.89
5350;BME280;2697;42.144;24.794;2023-06-14T12:16:09;159805.97;;;27.90;80.41
5350;BME280;2697;42.144;24.794;2023-06-14T12:18:36;159771.34;;;27.77;79.91
5350;BME280;2697;42.144;24.794;2023-06-14T12:21:06;159892.66;;;28.23;77.95
5350;BME280;2697;42.144;24.794;2023-06-14T12:23:48;160086.13;;;28.97;74.57
5350;BME280;2697;42.144;24.794;2023-06-14T12:26:19;160236.94;;;29.55;71.75
5350;BME280;2697;42.144;24.794;2023-06-14T12:28:46;160377.13;;;30.08;69.26
5350;BME280;2697;42.144;24.794;2023-06-14T12:31:12;160590.78;;;30.89;63.61
5350;BME280;2697;42.144;24.794;2023-06-14T12:33:41;160604.16;;;30.95;63.72
5350;BME280;2697;42.144;24.794;2023-06-14T12:36:08;160483.91;;;30.49;63.84
5350;BME280;2697;42.144;24.794;2023-06-14T12:38:34;160566.72;;;30.80;62.46
5350;BME280;2697;42.144;24.794;2023-06-14T12:41:00;160689.72;;;31.27;61.82
5350;BME280;2697;42.144;24.794;2023-06-14T12:43:26;160302.34;;;29.79;67.62
5350;BME280;2697;42.144;24.794;2023-06-14T12:45:51;160402.50;;;30.18;64.42
5350;BME280;2697;42.144;24.794;2023-06-14T12:48:16;160537.38;;;30.69;61.72
5350;BME280;2697;42.144;24.794;2023-06-14T12:50:42;160248.91;;;29.59;63.89
5350;BME280;2697;42.144;24.794;2023-06-14T12:53:07;160206.22;;;29.43;63.47
5350;BME280;2697;42.144;24.794;2023-06-14T12:55:33;160090.13;;;28.99;67.03
5350;BME280;2697;42.144;24.794;2023-06-14T12:57:58;160120.81;;;29.10;65.03
5350;BME280;2697;42.144;24.794;2023-06-14T13:00:24;160134.16;;;29.15;64.56
5350;BME280;2697;42.144;24.794;2023-06-14T13:02:51;160318.31;;;29.86;62.79
5350;BME280;2697;42.144;24.794;2023-06-14T13:05:17;160550.75;;;30.74;58.21
5350;BME280;2697;42.144;24.794;2023-06-14T13:07:43;160715.09;;;31.37;57.16
5350;BME280;2697;42.144;24.794;2023-06-14T13:10:08;160493.25;;;30.52;59.53
5350;BME280;2697;42.144;24.794;2023-06-14T13:12:34;160430.53;;;30.28;62.19